Time;durP1;ratioP1;P1;durP2;ratioP2;P2;SDS_P1;SDS_P2;PMS_P1;PMS_P2;Temp;Humidity;BMP_temperature;BMP_pressure;BME280_temperature;BME280_humidity;BME280_pressure;Samples;Min_cycle;Max_cycle;Signal;HPM_P1;HPM_P2
2022/02/19 00:02:25;;;;;;;11.50;5.72;;;1.90;99.90;;;;;;5074672;28;20058;-74
2022/02/19 00:04:51;;;;;;;7.63;5.68;;;1.80;99.90;;;;;;5056354;28;20024;-74
2022/02/19 00:07:16;;;;;;;10.77;5.90;;;1.80;99.90;;;;;;5074584;28;20527;-74
2022/02/19 00:09:42;;;;;;;10.48;6.25;;;1.70;99.90;;;;;;5074817;28;20460;-74
2022/02/19 00:12:08;;;;;;;10.10;5.63;;;1.70;99.90;;;;;;5074763;28;20056;-74
2022/02/19 00:14:34;;;;;;;13.30;6.68;;;1.70;99.90;;;;;;5074314;28;20044;-74
2022/02/19 00:17:03;;;;;;;12.60;7.03;;;1.70;99.90;;;;;;5074611;28;20083;-74
2022/02/19 00:19:29;;;;;;;10.65;6.25;;;1.70;99.90;;;;;;5074356;28;20016;-75
2022/02/19 00:21:54;;;;;;;9.38;6.68;;;1.70;99.90;;;;;;5074693;28;20551;-76
2022/02/19 00:24:20;;;;;;;13.45;7.15;;;1.60;99.90;;;;;;5074115;28;20055;-77
2022/02/19 00:26:46;;;;;;;10.32;6.00;;;1.60;99.90;;;;;;5074278;28;20033;-75
2022/02/19 00:29:11;;;;;;;9.52;5.90;;;1.50;99.90;;;;;;5074210;28;20055;-75
2022/02/19 00:31:37;;;;;;;10.27;6.93;;;1.60;99.90;;;;;;5074072;28;20024;-74
2022/02/19 00:34:03;;;;;;;13.93;6.68;;;1.50;99.90;;;;;;5073919;28;20032;-76
2022/02/19 00:36:29;;;;;;;15.80;6.57;;;1.50;99.90;;;;;;5074047;28;20368;-75
2022/02/19 00:38:54;;;;;;;13.88;6.32;;;1.40;99.90;;;;;;5073994;28;20107;-75
2022/02/19 00:41:20;;;;;;;10.30;5.82;;;1.40;99.90;;;;;;5074127;28;20016;-74
2022/02/19 00:43:46;;;;;;;8.77;5.90;;;1.40;99.90;;;;;;5073707;28;20033;-76
2022/02/19 00:46:12;;;;;;;10.70;6.22;;;1.40;99.90;;;;;;5073458;28;20068;-75
2022/02/19 00:48:37;;;;;;;13.25;6.05;;;1.40;99.90;;;;;;5074107;28;20024;-74
2022/02/19 00:51:03;;;;;;;11.88;7.22;;;1.40;99.90;;;;;;5073798;28;20039;-75
2022/02/19 00:53:29;;;;;;;13.02;6.95;;;1.30;99.90;;;;;;5074097;28;20376;-74
2022/02/19 00:55:54;;;;;;;13.10;6.57;;;1.30;99.90;;;;;;5055391;28;20120;-76
2022/02/19 00:58:21;;;;;;;10.73;6.60;;;1.30;99.90;;;;;;5055815;28;20020;-75
2022/02/19 01:00:46;;;;;;;10.60;6.90;;;1.40;99.90;;;;;;5073488;28;20030;-75
2022/02/19 01:03:12;;;;;;;15.90;6.40;;;1.40;99.90;;;;;;5073615;28;20099;-75
2022/02/19 01:05:38;;;;;;;14.70;7.32;;;1.40;99.90;;;;;;5055438;28;20037;-74
2022/02/19 01:08:04;;;;;;;8.98;5.32;;;1.30;99.90;;;;;;5073585;28;20020;-75
2022/02/19 01:10:30;;;;;;;9.68;5.05;;;1.30;99.90;;;;;;5073493;28;20031;-76
2022/02/19 01:12:55;;;;;;;9.48;5.57;;;1.30;99.90;;;;;;5073407;28;20017;-74
2022/02/19 01:15:21;;;;;;;8.68;5.43;;;1.20;99.90;;;;;;5073484;28;20024;-78
2022/02/19 01:17:48;;;;;;;9.00;5.00;;;1.10;99.90;;;;;;5055466;28;20094;-75
2022/02/19 01:20:13;;;;;;;14.40;6.13;;;1.10;99.90;;;;;;5073168;28;20029;-74
2022/02/19 01:22:41;;;;;;;11.43;5.85;;;1.10;99.90;;;;;;5073025;28;20570;-75
2022/02/19 01:25:08;;;;;;;10.60;5.88;;;1.10;99.90;;;;;;5072716;28;20029;-77
2022/02/19 01:27:34;;;;;;;11.82;5.72;;;1.10;99.90;;;;;;5055154;28;20035;-75
2022/02/19 01:29:59;;;;;;;8.73;6.03;;;1.10;99.90;;;;;;5072863;28;20025;-75
2022/02/19 01:32:25;;;;;;;9.13;5.57;;;1.10;99.90;;;;;;5072837;28;20477;-75
2022/02/19 01:34:51;;;;;;;10.27;6.53;;;1.10;99.90;;;;;;5072867;28;20040;-74
2022/02/19 01:37:17;;;;;;;8.80;5.57;;;1.00;99.90;;;;;;5073257;28;20025;-81
2022/02/19 01:39:44;;;;;;;9.82;5.65;;;1.00;99.90;;;;;;5073919;28;20013;-81
2022/02/19 01:42:10;;;;;;;10.07;5.78;;;1.00;99.90;;;;;;5055632;28;20039;-76
2022/02/19 01:44:38;;;;;;;9.70;6.30;;;1.00;99.90;;;;;;5055051;28;20021;-75
2022/02/19 01:47:05;;;;;;;10.82;7.20;;;0.90;99.90;;;;;;5072498;28;20048;-74
2022/02/19 01:49:31;;;;;;;10.00;5.82;;;0.90;99.90;;;;;;5072984;28;20092;-74
2022/02/19 01:51:57;;;;;;;8.95;6.28;;;0.90;99.90;;;;;;5055281;28;20080;-76
2022/02/19 01:54:23;;;;;;;10.45;5.97;;;0.90;99.90;;;;;;5073016;28;20476;-75
2022/02/19 01:56:48;;;;;;;8.10;6.15;;;0.80;99.90;;;;;;5055124;28;20025;-78
2022/02/19 01:59:14;;;;;;;10.95;6.57;;;0.80;99.90;;;;;;5073137;28;20082;-76
2022/02/19 02:01:40;;;;;;;15.80;7.43;;;0.80;99.90;;;;;;5072914;28;20028;-75
2022/02/19 02:04:05;;;;;;;10.88;7.68;;;0.80;99.90;;;;;;5054949;28;20035;-76
2022/02/19 02:06:31;;;;;;;13.57;7.18;;;0.80;99.90;;;;;;5055001;28;20090;-76
2022/02/19 02:08:59;;;;;;;10.88;6.60;;;0.80;99.90;;;;;;5055130;28;20380;-76
2022/02/19 02:11:25;;;;;;;12.35;6.13;;;0.90;99.90;;;;;;5072507;28;20515;-75
2022/02/19 02:13:50;;;;;;;10.05;6.18;;;0.90;99.90;;;;;;5072410;28;20096;-74
2022/02/19 02:16:16;;;;;;;11.52;6.45;;;0.90;99.90;;;;;;5072157;28;20074;-78
2022/02/19 02:18:43;;;;;;;8.75;6.45;;;0.90;99.90;;;;;;5072807;28;20025;-77
2022/02/19 02:21:09;;;;;;;9.18;6.07;;;0.90;99.90;;;;;;5072705;28;20024;-77
2022/02/19 02:23:35;;;;;;;11.25;6.25;;;1.00;99.90;;;;;;5072703;28;20474;-76
2022/02/19 02:26:02;;;;;;;10.00;6.35;;;0.90;99.90;;;;;;5072408;28;20119;-77
2022/02/19 02:28:28;;;;;;;12.93;6.90;;;0.90;99.90;;;;;;5072434;28;20135;-75
2022/02/19 02:30:54;;;;;;;8.80;6.40;;;0.90;99.90;;;;;;5054555;28;20123;-75
2022/02/19 02:33:21;;;;;;;12.18;6.72;;;0.90;99.90;;;;;;5072561;28;20110;-75
2022/02/19 02:35:51;;;;;;;11.75;6.40;;;0.90;99.90;;;;;;5054523;28;20166;-76
2022/02/19 02:38:18;;;;;;;12.50;7.68;;;0.90;99.90;;;;;;5054332;28;20024;-77
2022/02/19 02:40:44;;;;;;;11.52;6.85;;;0.90;99.90;;;;;;5072209;28;20016;-77
2022/02/19 02:43:10;;;;;;;11.55;7.60;;;0.90;99.90;;;;;;5072174;28;20031;-75
2022/02/19 02:45:36;;;;;;;11.73;6.05;;;0.90;99.90;;;;;;5072431;28;20043;-77
2022/02/19 02:48:02;;;;;;;8.68;5.63;;;0.80;99.90;;;;;;5072158;28;20044;-77
2022/02/19 02:50:28;;;;;;;10.65;5.97;;;0.90;99.90;;;;;;5072384;28;20044;-74
2022/02/19 02:52:54;;;;;;;12.07;6.50;;;0.90;99.90;;;;;;5054223;28;20025;-78
2022/02/19 02:55:19;;;;;;;9.82;6.95;;;0.80;99.90;;;;;;5072170;28;20036;-74
2022/02/19 02:57:45;;;;;;;12.30;6.60;;;0.90;99.90;;;;;;5072544;28;20096;-78
2022/02/19 03:00:13;;;;;;;11.27;6.75;;;0.90;99.90;;;;;;5054232;28;20020;-74
2022/02/19 03:02:40;;;;;;;9.60;6.55;;;0.90;99.90;;;;;;5072450;28;20063;-74
2022/02/19 03:05:07;;;;;;;11.18;6.55;;;0.90;99.90;;;;;;5071990;28;20379;-74
2022/02/19 03:07:34;;;;;;;9.13;6.18;;;0.90;99.90;;;;;;5054519;28;20420;-77
2022/02/19 03:10:00;;;;;;;10.55;5.78;;;1.10;99.90;;;;;;5072505;28;20471;-77
2022/02/19 03:12:26;;;;;;;12.25;6.30;;;0.90;99.90;;;;;;5072199;28;20035;-77
2022/02/19 03:14:52;;;;;;;10.57;6.35;;;0.90;99.90;;;;;;5071961;28;20025;-75
2022/02/19 03:17:18;;;;;;;9.15;6.15;;;0.90;99.90;;;;;;5072282;28;20035;-77
2022/02/19 03:19:45;;;;;;;9.52;6.20;;;1.00;99.90;;;;;;5072110;28;20066;-76
2022/02/19 03:22:12;;;;;;;10.25;6.10;;;0.90;99.90;;;;;;5054041;28;20032;-74
2022/02/19 03:24:38;;;;;;;13.32;5.93;;;0.90;99.90;;;;;;5053908;28;20032;-77
2022/02/19 03:27:04;;;;;;;9.35;6.55;;;0.90;99.90;;;;;;5073044;28;20029;-75
2022/02/19 03:29:30;;;;;;;12.20;6.38;;;0.90;99.90;;;;;;5075880;28;20077;-75
2022/02/19 03:31:56;;;;;;;17.38;7.72;;;0.90;99.90;;;;;;5057958;28;20020;-76
2022/02/19 03:34:24;;;;;;;12.15;6.55;;;0.90;99.90;;;;;;5057847;28;20021;-74
2022/02/19 03:36:50;;;;;;;10.07;6.40;;;0.80;99.90;;;;;;5075678;28;20017;-75
2022/02/19 03:39:16;;;;;;;15.65;6.85;;;0.80;99.90;;;;;;5075370;28;20029;-77
2022/02/19 03:41:42;;;;;;;9.93;6.30;;;0.70;99.90;;;;;;5075593;28;20035;-75
2022/02/19 03:44:08;;;;;;;11.07;6.47;;;0.70;99.90;;;;;;5057477;28;20027;-77
2022/02/19 03:46:37;;;;;;;10.20;6.85;;;0.70;99.90;;;;;;5075430;28;20387;-77
2022/02/19 03:49:04;;;;;;;9.45;6.25;;;0.80;99.90;;;;;;5057475;28;20048;-77
2022/02/19 03:51:30;;;;;;;9.30;6.72;;;0.80;99.90;;;;;;5075400;28;20032;-75
2022/02/19 03:53:56;;;;;;;13.48;7.07;;;0.80;99.90;;;;;;5057296;28;20036;-76
2022/02/19 03:56:22;;;;;;;13.80;7.03;;;0.80;99.90;;;;;;5056471;28;20028;-77
2022/02/19 03:58:48;;;;;;;8.95;7.18;;;0.80;99.90;;;;;;5075458;28;20441;-78
2022/02/19 04:01:13;;;;;;;13.73;8.60;;;0.90;99.90;;;;;;5075334;28;20052;-75
2022/02/19 04:03:39;;;;;;;12.00;6.75;;;1.00;99.90;;;;;;5074816;28;20086;-74
2022/02/19 04:06:05;;;;;;;12.80;6.78;;;1.10;99.90;;;;;;5075287;28;20037;-75
2022/02/19 04:08:30;;;;;;;10.93;5.97;;;1.00;99.90;;;;;;5075005;28;20032;-77
2022/02/19 04:10:56;;;;;;;11.00;6.85;;;1.10;99.90;;;;;;5057040;28;20032;-79
2022/02/19 04:13:22;;;;;;;11.50;7.38;;;1.10;99.90;;;;;;5057072;28;20463;-75
2022/02/19 04:15:47;;;;;;;8.25;6.65;;;1.20;99.90;;;;;;5075032;28;20029;-75
2022/02/19 04:18:14;;;;;;;10.45;7.50;;;1.30;99.90;;;;;;5074999;28;20150;-75
2022/02/19 04:20:40;;;;;;;11.13;6.47;;;1.30;99.90;;;;;;5074866;28;20035;-77
2022/02/19 04:23:06;;;;;;;11.88;6.35;;;1.30;99.90;;;;;;5075094;28;20021;-77
2022/02/19 04:25:32;;;;;;;10.88;5.78;;;1.40;99.90;;;;;;5074624;28;20375;-76
2022/02/19 04:28:06;;;;;;;14.82;7.88;;;1.40;99.90;;;;;;5056676;28;20404;-76
2022/02/19 04:30:33;;;;;;;10.77;6.57;;;1.50;99.90;;;;;;5074627;28;20536;-78
2022/02/19 04:32:59;;;;;;;8.63;5.82;;;1.60;99.90;;;;;;5056562;28;20033;-76
2022/02/19 04:35:27;;;;;;;10.57;6.03;;;1.60;99.90;;;;;;5056583;28;20356;-77
2022/02/19 04:37:52;;;;;;;8.20;5.88;;;1.70;99.90;;;;;;5074408;28;20017;-77
2022/02/19 04:40:18;;;;;;;9.80;4.95;;;1.80;99.90;;;;;;5074550;28;20074;-76
2022/02/19 04:42:44;;;;;;;7.80;4.45;;;1.80;99.90;;;;;;5056446;28;20119;-77
2022/02/19 04:45:10;;;;;;;6.60;5.15;;;1.90;99.90;;;;;;5074492;28;20081;-78
2022/02/19 04:47:36;;;;;;;6.78;4.22;;;2.00;99.90;;;;;;5074210;28;20059;-76
2022/02/19 04:50:04;;;;;;;11.70;4.65;;;2.00;99.90;;;;;;5074293;28;20414;-75
2022/02/19 04:52:31;;;;;;;7.05;4.95;;;2.10;99.90;;;;;;5055692;28;20428;-78
2022/02/19 04:54:56;;;;;;;7.68;4.72;;;2.10;99.90;;;;;;5073813;28;20028;-81
2022/02/19 04:57:22;;;;;;;6.47;5.03;;;2.20;99.90;;;;;;5056328;28;20024;-74
2022/02/19 04:59:48;;;;;;;6.10;5.03;;;2.20;99.90;;;;;;5074870;28;20020;-75
2022/02/19 05:02:13;;;;;;;12.93;5.68;;;2.20;99.90;;;;;;5074594;28;20025;-74
2022/02/19 05:04:39;;;;;;;18.20;7.70;;;2.40;99.90;;;;;;5074147;28;20029;-75
2022/02/19 05:07:05;;;;;;;15.43;11.02;;;2.40;99.90;;;;;;5073532;28;20039;-75
2022/02/19 05:09:31;;;;;;;15.30;10.40;;;2.50;99.90;;;;;;5073686;28;20456;-76
2022/02/19 05:11:57;;;;;;;14.00;9.20;;;2.50;99.90;;;;;;5073626;28;20024;-76
2022/02/19 05:14:23;;;;;;;9.73;6.25;;;2.50;99.90;;;;;;5073549;28;20345;-75
2022/02/19 05:16:48;;;;;;;12.65;6.32;;;2.60;99.90;;;;;;5073460;28;20032;-75
2022/02/19 05:19:14;;;;;;;12.98;6.47;;;2.70;99.90;;;;;;5073501;28;20031;-75
2022/02/19 05:21:40;;;;;;;12.57;6.30;;;2.70;99.90;;;;;;5055282;28;20036;-77
2022/02/19 05:24:05;;;;;;;12.70;7.53;;;2.80;99.90;;;;;;5073254;28;20511;-75
2022/02/19 05:26:32;;;;;;;12.07;7.05;;;2.80;99.90;;;;;;5055428;28;20052;-76
2022/02/19 05:28:58;;;;;;;13.75;6.30;;;2.90;99.90;;;;;;5055235;28;20021;-75
2022/02/19 05:31:23;;;;;;;8.27;4.97;;;2.90;99.90;;;;;;5073239;28;20082;-75
2022/02/19 05:33:49;;;;;;;12.95;6.22;;;3.00;99.90;;;;;;5072966;28;20379;-75
2022/02/19 05:36:15;;;;;;;8.75;4.30;;;3.00;99.90;;;;;;5073356;28;20103;-75
2022/02/19 05:38:41;;;;;;;6.78;3.67;;;3.10;99.90;;;;;;5073032;28;20012;-74
2022/02/19 05:41:06;;;;;;;3.83;2.92;;;3.10;99.90;;;;;;5073092;28;20028;-75
2022/02/19 05:43:32;;;;;;;3.08;2.17;;;3.20;99.90;;;;;;5054951;28;20017;-75
2022/02/19 05:45:57;;;;;;;4.65;2.10;;;3.20;99.90;;;;;;5072437;28;20040;-80
2022/02/19 05:48:23;;;;;;;2.58;1.73;;;3.30;99.90;;;;;;5072814;28;20037;-79
2022/02/19 05:50:50;;;;;;;5.88;3.28;;;3.30;99.90;;;;;;5072892;28;20067;-78
2022/02/19 05:53:15;;;;;;;6.80;3.70;;;3.40;99.90;;;;;;5054836;28;20123;-77
2022/02/19 05:55:41;;;;;;;10.88;4.63;;;3.50;99.90;;;;;;5072790;28;20422;-75
2022/02/19 05:58:07;;;;;;;7.50;4.30;;;3.50;99.90;;;;;;5073120;28;20043;-76
2022/02/19 06:00:33;;;;;;;7.18;4.20;;;3.60;99.90;;;;;;5072741;28;20032;-76
2022/02/19 06:02:59;;;;;;;4.72;3.25;;;3.60;99.90;;;;;;5072819;28;20451;-75
2022/02/19 06:05:24;;;;;;;8.10;4.65;;;3.80;99.90;;;;;;5072872;28;20032;-79
2022/02/19 06:07:50;;;;;;;7.32;5.10;;;3.80;99.90;;;;;;5072724;28;20032;-75
2022/02/19 06:10:15;;;;;;;10.93;4.38;;;3.80;99.90;;;;;;5072686;28;20017;-75
2022/02/19 06:12:41;;;;;;;6.63;4.35;;;3.90;99.90;;;;;;5073906;28;20021;-79
2022/02/19 06:15:07;;;;;;;8.10;4.10;;;3.90;99.90;;;;;;5054760;28;20028;-81
2022/02/19 06:17:33;;;;;;;6.18;4.22;;;3.90;99.90;;;;;;5072653;28;20036;-79
2022/02/19 06:19:59;;;;;;;6.43;4.60;;;4.20;99.90;;;;;;5072726;28;20035;-80
2022/02/19 06:22:25;;;;;;;8.32;5.13;;;4.30;99.90;;;;;;5072226;28;20012;-78
2022/02/19 06:24:51;;;;;;;7.55;4.15;;;4.20;99.90;;;;;;5074678;28;20025;-76
2022/02/19 06:27:16;;;;;;;9.48;5.13;;;4.20;99.90;;;;;;5072291;28;20031;-75
2022/02/19 06:29:42;;;;;;;8.70;4.95;;;4.20;99.90;;;;;;5072417;28;20024;-76
2022/02/19 06:32:09;;;;;;;9.38;5.20;;;4.20;99.90;;;;;;5054369;28;20490;-77
2022/02/19 06:34:35;;;;;;;7.60;4.93;;;4.10;99.90;;;;;;5072286;28;20025;-75
2022/02/19 06:37:01;;;;;;;5.03;4.10;;;4.20;99.90;;;;;;5054003;28;20562;-74
2022/02/19 06:39:27;;;;;;;5.30;3.95;;;4.20;99.90;;;;;;5072421;28;20104;-77
2022/02/19 06:41:52;;;;;;;10.27;9.07;;;4.20;99.90;;;;;;5072070;28;20463;-76
2022/02/19 06:44:18;;;;;;;9.80;5.45;;;4.10;99.90;;;;;;5072040;28;20092;-75
2022/02/19 06:46:44;;;;;;;14.00;11.40;;;4.20;99.90;;;;;;5071849;28;20114;-74
2022/02/19 06:49:09;;;;;;;9.93;8.55;;;4.20;99.90;;;;;;5071997;28;20025;-75
2022/02/19 06:51:35;;;;;;;11.50;8.00;;;4.10;99.90;;;;;;5072081;28;20036;-75
2022/02/19 06:54:01;;;;;;;6.30;4.93;;;4.10;99.90;;;;;;5072057;28;20368;-76
2022/02/19 06:56:30;;;;;;;9.90;4.72;;;4.10;99.90;;;;;;5072111;28;20031;-77
2022/02/19 06:58:58;;;;;;;6.95;4.38;;;4.10;99.90;;;;;;5054190;28;20028;-77
2022/02/19 07:01:28;;;;;;;7.90;6.88;;;4.10;99.90;;;;;;5073650;28;20032;-75
2022/02/19 07:03:56;;;;;;;12.15;6.90;;;4.10;99.90;;;;;;5075700;28;20074;-76
2022/02/19 07:06:23;;;;;;;7.47;4.80;;;4.10;99.90;;;;;;5075964;28;20032;-76
2022/02/19 07:08:49;;;;;;;7.60;5.50;;;4.20;99.90;;;;;;5075844;28;20472;-74
2022/02/19 07:11:14;;;;;;;8.77;5.80;;;4.20;99.90;;;;;;5075755;28;20031;-74
2022/02/19 07:13:40;;;;;;;9.38;5.53;;;4.10;99.90;;;;;;5075743;28;20020;-76
2022/02/19 07:16:06;;;;;;;8.00;4.47;;;4.10;99.90;;;;;;5075416;28;20032;-74
2022/02/19 07:18:33;;;;;;;6.05;5.05;;;4.00;99.90;;;;;;5057495;28;20074;-75
2022/02/19 07:20:59;;;;;;;11.02;5.53;;;4.10;99.90;;;;;;5057452;28;20112;-74
2022/02/19 07:23:24;;;;;;;11.15;6.10;;;4.00;99.90;;;;;;5075379;28;20092;-74
2022/02/19 07:25:50;;;;;;;9.43;5.95;;;4.10;99.90;;;;;;5057835;28;20032;-74
2022/02/19 07:28:16;;;;;;;7.00;5.70;;;4.00;99.90;;;;;;5075690;28;20064;-76
2022/02/19 07:30:43;;;;;;;9.52;4.95;;;4.00;99.90;;;;;;5075295;28;20028;-74
2022/02/19 07:33:09;;;;;;;8.93;4.97;;;4.00;99.90;;;;;;5075364;28;20425;-75
2022/02/19 07:35:35;;;;;;;8.40;5.03;;;4.00;99.90;;;;;;5083769;28;20021;-79
2022/02/19 07:38:02;;;;;;;9.02;6.40;;;4.10;99.90;;;;;;5074468;28;20024;-77
2022/02/19 07:40:28;;;;;;;11.13;7.20;;;4.20;99.90;;;;;;5092390;28;20050;-76
2022/02/19 07:42:55;;;;;;;10.30;6.75;;;4.30;99.90;;;;;;5092113;28;20012;-78
2022/02/19 07:45:24;;;;;;;16.17;6.38;;;4.30;99.90;;;;;;5092723;28;20112;-78
2022/02/19 07:47:50;;;;;;;11.25;7.57;;;4.30;99.90;;;;;;5074446;28;20115;-79
2022/02/19 07:58:33;;;;;;;8.20;6.10;;;4.50;99.90;;;;;;5075323;28;20081;-78
2022/02/19 08:01:01;;;;;;;10.23;6.78;;;4.60;99.90;;;;;;5057209;28;20031;-78
2022/02/19 08:03:29;;;;;;;8.77;6.15;;;4.70;99.90;;;;;;5057061;28;20031;-77
2022/02/19 08:05:56;;;;;;;13.50;8.43;;;4.80;99.90;;;;;;5074965;28;20068;-77
2022/02/19 08:08:22;;;;;;;13.48;8.68;;;4.90;99.90;;;;;;5074741;28;20023;-77
2022/02/19 08:10:48;;;;;;;23.90;14.35;;;5.00;99.90;;;;;;5075124;28;20024;-75
2022/02/19 08:13:16;;;;;;;13.30;8.25;;;5.10;99.90;;;;;;5073922;28;20431;-75
2022/02/19 08:15:42;;;;;;;12.98;8.95;;;5.20;99.90;;;;;;5056670;28;20031;-76
2022/02/19 08:18:09;;;;;;;12.57;9.13;;;5.20;99.90;;;;;;5056591;28;20375;-77
2022/02/19 08:20:37;;;;;;;9.25;5.72;;;5.40;99.90;;;;;;5074530;28;20348;-75
2022/02/19 08:23:04;;;;;;;9.35;6.85;;;5.30;99.90;;;;;;5056273;28;20025;-76
2022/02/19 08:25:31;;;;;;;19.83;15.45;;;5.50;99.90;;;;;;5074095;28;20062;-75
2022/02/19 08:27:57;;;;;;;18.60;15.05;;;6.30;99.90;;;;;;5074134;28;20032;-77
2022/02/19 08:30:23;;;;;;;17.35;10.88;;;6.60;99.90;;;;;;5074260;28;20078;-78
2022/02/19 08:32:49;;;;;;;25.83;19.08;;;6.90;99.90;;;;;;5074210;28;20099;-77
2022/02/19 08:35:15;;;;;;;31.65;18.45;;;6.90;99.90;;;;;;5074252;28;20497;-75
2022/02/19 08:37:41;;;;;;;25.63;17.42;;;6.80;99.90;;;;;;5074369;28;20153;-77
2022/02/19 08:40:11;;;;;;;10.38;6.18;;;6.60;99.90;;;;;;5056354;28;20039;-76
2022/02/19 08:42:42;;;;;;;13.95;8.05;;;6.50;99.90;;;;;;5056964;28;20112;-76
2022/02/19 08:45:08;;;;;;;10.00;5.80;;;6.40;99.90;;;;;;5073973;28;20460;-77
2022/02/19 08:47:34;;;;;;;10.63;8.07;;;6.30;99.90;;;;;;5073782;28;20045;-78
2022/02/19 08:50:05;;;;;;;15.73;9.90;;;6.40;99.90;;;;;;5055780;28;20025;-81
2022/02/19 08:52:31;;;;;;;19.20;10.40;;;6.80;99.90;;;;;;5055731;28;20108;-80
2022/02/19 08:54:58;;;;;;;15.07;8.05;;;7.10;99.90;;;;;;5055681;28;20135;-80
2022/02/19 08:57:23;;;;;;;8.38;6.68;;;7.30;99.90;;;;;;5063756;28;20028;-79
2022/02/19 08:59:50;;;;;;;16.70;12.05;;;7.70;99.90;;;;;;5036021;28;20464;-79
2022/02/19 09:02:15;;;;;;;23.38;15.27;;;7.90;99.90;;;;;;5036533;28;20120;-80
2022/02/19 09:04:41;;;;;;;11.20;7.75;;;8.10;99.90;;;;;;5035872;28;20127;-79
2022/02/19 09:07:07;;;;;;;9.98;7.88;;;8.20;99.90;;;;;;5053748;28;20037;-79
2022/02/19 09:09:36;;;;;;;7.88;6.68;;;8.20;99.90;;;;;;5036519;28;20063;-81
2022/02/19 09:12:05;;;;;;;14.15;5.95;;;8.20;99.90;;;;;;5036930;28;20029;-80
2022/02/19 09:14:31;;;;;;;11.52;7.35;;;8.10;99.90;;;;;;5036567;28;20029;-79
2022/02/19 09:16:56;;;;;;;11.90;8.38;;;8.10;99.90;;;;;;5037037;28;20364;-82
2022/02/19 09:19:23;;;;;;;9.73;8.05;;;8.10;99.90;;;;;;5054538;28;20028;-82
2022/02/19 09:21:49;;;;;;;9.32;7.05;;;8.10;99.90;;;;;;5054481;28;20035;-82
2022/02/19 09:24:15;;;;;;;8.98;6.63;;;8.30;99.90;;;;;;5035987;28;20025;-82
2022/02/19 09:26:40;;;;;;;13.57;8.95;;;8.40;99.90;;;;;;5054685;28;20035;-82
2022/02/19 09:29:06;;;;;;;7.53;6.50;;;8.50;99.90;;;;;;5036558;28;20111;-83
2022/02/19 09:31:32;;;;;;;8.50;6.10;;;8.60;99.90;;;;;;5036147;28;20063;-80
2022/02/19 09:33:57;;;;;;;9.13;6.30;;;8.80;99.90;;;;;;5035714;28;20082;-78
2022/02/19 09:36:23;;;;;;;10.27;6.38;;;8.80;99.90;;;;;;5054209;28;20020;-80
2022/02/19 09:38:49;;;;;;;9.50;6.68;;;8.80;99.90;;;;;;5053786;28;20029;-82
2022/02/19 09:41:16;;;;;;;8.30;5.63;;;8.80;99.90;;;;;;5036136;28;20033;-83
2022/02/19 09:43:42;;;;;;;9.25;5.50;;;8.90;99.90;;;;;;5036820;28;20017;-82
2022/02/19 09:46:08;;;;;;;25.70;17.90;;;8.90;99.90;;;;;;5053909;28;20384;-80
2022/02/19 09:48:34;;;;;;;13.75;9.98;;;9.00;99.90;;;;;;5054013;28;20078;-78
2022/02/19 09:51:01;;;;;;;10.63;6.90;;;8.90;99.90;;;;;;5036792;28;20063;-82
2022/02/19 09:53:28;;;;;;;102.15;15.38;;;8.90;99.90;;;;;;5054676;28;20146;-84
2022/02/19 09:55:56;;;;;;;16.52;8.30;;;8.90;99.90;;;;;;5036516;28;20021;-81
2022/02/19 09:58:24;;;;;;;36.53;10.20;;;8.90;99.90;;;;;;5037122;28;20089;-83
2022/02/19 10:00:51;;;;;;;13.13;8.27;;;8.90;99.90;;;;;;5054186;28;20057;-82
2022/02/19 10:03:24;;;;;;;41.78;12.13;;;8.90;99.90;;;;;;5035481;28;20028;-79
2022/02/19 10:05:51;;;;;;;58.17;27.25;;;9.10;99.90;;;;;;5052944;28;20500;-81
2022/02/19 10:08:17;;;;;;;30.88;12.10;;;9.00;99.90;;;;;;5035321;28;20111;-80
2022/02/19 10:10:54;;;;;;;73.65;17.42;;;9.10;99.90;;;;;;5035499;28;20168;-79
2022/02/19 10:13:32;;;;;;;50.67;16.85;;;9.10;99.90;;;;;;5035515;28;20372;-80
2022/02/19 10:15:58;;;;;;;16.90;4.78;;;9.30;99.90;;;;;;5034445;28;20128;-81
2022/02/19 10:18:28;;;;;;;7.32;4.40;;;9.40;99.80;;;;;;5034856;28;20077;-76
2022/02/19 10:21:10;;;;;;;5.70;4.07;;;9.50;99.20;;;;;;5034627;28;20380;-76
2022/02/19 10:23:39;;;;;;;10.57;4.63;;;9.40;99.90;;;;;;5052668;28;20029;-79
2022/02/19 10:26:05;;;;;;;12.13;5.25;;;9.40;99.90;;;;;;5052180;28;20052;-80
2022/02/19 10:28:31;;;;;;;30.15;14.98;;;9.40;99.90;;;;;;5052386;28;20025;-79
2022/02/19 10:31:08;;;;;;;31.38;17.52;;;9.30;99.90;;;;;;5052604;28;20029;-79
2022/02/19 10:33:34;;;;;;;25.35;17.52;;;9.30;99.90;;;;;;5051935;28;20029;-80
2022/02/19 10:36:01;;;;;;;20.65;13.32;;;9.30;99.90;;;;;;5051784;28;20031;-79
2022/02/19 10:38:27;;;;;;;22.58;12.57;;;9.30;99.90;;;;;;5034299;28;20056;-78
2022/02/19 10:40:55;;;;;;;47.55;24.33;;;9.20;99.90;;;;;;5052031;28;20417;-78
2022/02/19 10:43:29;;;;;;;26.13;13.80;;;9.20;99.90;;;;;;5034336;28;20025;-79
2022/02/19 10:45:55;;;;;;;23.85;10.32;;;9.10;99.90;;;;;;5034069;28;20029;-80
2022/02/19 10:48:28;;;;;;;26.20;14.45;;;9.00;99.90;;;;;;5034082;28;20029;-78
2022/02/19 10:51:15;;;;;;;19.52;9.98;;;8.90;99.90;;;;;;5052187;28;20583;-81
2022/02/19 10:53:45;;;;;;;23.27;12.20;;;8.90;99.90;;;;;;5034332;28;20029;-79
2022/02/19 10:56:12;;;;;;;26.05;13.60;;;8.80;99.90;;;;;;5052111;28;20032;-78
2022/02/19 10:59:05;;;;;;;20.25;10.60;;;8.80;99.90;;;;;;5034316;28;20056;-80
2022/02/19 11:01:50;;;;;;;27.60;14.18;;;8.60;99.90;;;;;;5051878;28;20029;-80
2022/02/19 11:04:17;;;;;;;18.77;8.03;;;8.60;99.90;;;;;;5052000;28;20128;-78
2022/02/19 11:06:43;;;;;;;34.05;14.18;;;8.60;99.90;;;;;;5034767;28;20698;-79
2022/02/19 11:09:11;;;;;;;22.20;10.52;;;8.50;99.90;;;;;;5052130;28;20110;-79
2022/02/19 11:11:39;;;;;;;36.60;18.45;;;8.50;99.90;;;;;;5034203;28;20032;-78
2022/02/19 11:14:06;;;;;;;34.30;16.00;;;8.40;99.90;;;;;;5051869;28;20021;-79
2022/02/19 11:16:33;;;;;;;37.78;16.60;;;8.40;99.90;;;;;;5051932;28;20124;-78
2022/02/19 11:18:59;;;;;;;51.00;21.65;;;8.40;99.90;;;;;;5052537;28;20065;-79
2022/02/19 11:21:27;;;;;;;12.55;5.88;;;8.40;99.90;;;;;;5033891;28;20472;-80
2022/02/19 11:23:54;;;;;;;59.70;24.95;;;8.40;99.90;;;;;;5051749;28;20018;-80
2022/02/19 11:26:22;;;;;;;63.08;27.50;;;8.40;99.90;;;;;;5051847;28;20037;-79
2022/02/19 11:28:51;;;;;;;58.08;25.27;;;8.50;99.90;;;;;;5034166;28;20021;-80
2022/02/19 11:31:19;;;;;;;24.25;12.10;;;8.50;99.90;;;;;;5051675;28;20082;-81
2022/02/19 11:33:51;;;;;;;29.35;14.20;;;8.60;99.90;;;;;;5033911;28;20094;-80
2022/02/19 11:36:24;;;;;;;88.47;34.22;;;8.70;99.90;;;;;;5033907;28;20031;-79
2022/02/19 11:38:53;;;;;;;58.53;22.42;;;8.90;99.90;;;;;;5033653;28;20049;-81
2022/02/19 11:41:43;;;;;;;75.97;28.08;;;8.90;99.90;;;;;;5051465;28;20021;-78
2022/02/19 11:44:26;;;;;;;63.35;25.90;;;9.10;99.90;;;;;;5051271;28;20017;-81
2022/02/19 11:46:54;;;;;;;35.05;16.23;;;9.20;99.90;;;;;;5051262;28;20049;-80
2022/02/19 11:49:22;;;;;;;28.80;12.32;;;9.30;99.70;;;;;;5036611;28;20021;-80
2022/02/19 11:52:03;;;;;;;41.78;18.08;;;9.40;98.80;;;;;;5036897;28;20403;-80
2022/02/19 11:54:29;;;;;;;28.90;13.10;;;9.50;98.10;;;;;;5036994;28;20032;-79
2022/02/19 11:56:55;;;;;;;53.70;22.55;;;9.60;97.50;;;;;;5054613;28;20021;-78
2022/02/19 11:59:23;;;;;;;33.38;13.52;;;9.60;97.50;;;;;;5037173;28;20033;-81
2022/02/19 12:02:18;;;;;;;27.35;13.40;;;9.70;97.70;;;;;;5036754;28;20025;-79
2022/02/19 12:05:04;;;;;;;23.08;9.90;;;9.90;97.60;;;;;;5036826;28;20029;-79
2022/02/19 12:07:30;;;;;;;28.17;12.38;;;9.90;97.80;;;;;;5036505;28;20450;-81
2022/02/19 12:10:03;;;;;;;34.80;15.82;;;10.00;97.70;;;;;;5036552;28;20027;-80
2022/02/19 12:12:29;;;;;;;19.95;8.35;;;10.00;97.70;;;;;;5036572;28;20108;-78
2022/02/19 12:15:01;;;;;;;36.08;15.73;;;10.10;96.90;;;;;;5036498;28;20057;-80
2022/02/19 12:17:47;;;;;;;13.23;5.72;;;10.20;96.70;;;;;;5036523;28;20036;-79
2022/02/19 12:20:27;;;;;;;49.25;18.90;;;10.20;95.10;;;;;;5035921;28;20472;-79
2022/02/19 12:22:55;;;;;;;10.93;6.03;;;10.30;95.00;;;;;;5036614;28;20150;-79
2022/02/19 12:25:21;;;;;;;23.85;8.60;;;10.30;94.70;;;;;;5036487;28;20595;-79
2022/02/19 12:28:17;;;;;;;14.38;8.18;;;10.30;94.70;;;;;;5052667;28;20034;-78
2022/02/19 12:30:43;;;;;;;21.55;12.68;;;10.30;94.20;;;;;;5056448;28;20062;-80
2022/02/19 12:33:09;;;;;;;7.18;3.60;;;10.40;93.90;;;;;;5074678;28;20024;-79
2022/02/19 12:35:45;;;;;;;5.55;3.20;;;10.50;93.40;;;;;;5074287;28;20040;-79
2022/02/19 12:38:14;;;;;;;13.60;4.78;;;10.50;92.90;;;;;;5056919;28;20016;-78
2022/02/19 12:40:41;;;;;;;19.15;7.95;;;10.60;92.90;;;;;;5075110;28;20375;-83
2022/02/19 12:43:14;;;;;;;9.18;3.40;;;10.50;92.60;;;;;;5057107;28;20472;-79
2022/02/19 12:45:41;;;;;;;13.32;4.75;;;10.50;92.30;;;;;;5075173;28;20111;-80
2022/02/19 12:48:07;;;;;;;8.90;4.32;;;10.40;92.50;;;;;;5074976;28;20492;-80
2022/02/19 12:50:32;;;;;;;4.80;2.70;;;10.50;92.80;;;;;;5056443;28;20074;-79
2022/02/19 12:52:58;;;;;;;7.40;2.00;;;10.40;92.00;;;;;;5056322;28;20438;-80
2022/02/19 12:55:24;;;;;;;4.93;3.47;;;10.50;92.30;;;;;;5056347;28;20021;-78
2022/02/19 12:57:52;;;;;;;6.53;2.53;;;10.50;93.10;;;;;;5056198;28;20086;-79